Horizon Kinetics SPAC Active ETF【SPAQ】週足四本値・時系列データ
NASDAQ
株価 15分ディレイ
こちらは株探プレミアム 「米国株プラン」 または
「日米セットプラン」
限定コンテンツ"
です。プランをご契約して見ることができます。
株探プレミアムに申し込む(初回無料体験付き)
プレミアム会員の方はこちらからログイン
プレミアム会員になると...
株探プレミアムに登録すると...
初回30日間無料!
お気に入り銘柄を無制限で登録できたり、株価をリアルタイムでご覧いただけます。
52週高値 108.25 (25/12/18)
52週安値 89.43 (26/01/05)
| 日付 | 始値 | 高値 | 安値 | 終値 | 前週比 | 前週比% | 売買高(株) |
|---|---|---|---|---|---|---|---|
| 26/05/01 | 91.93 | 92.30 | 91.93 | 92.04 | +0.14 | +0.15 | 103 |
| 日付 | 始値 | 高値 | 安値 | 終値 | 前週比 | 前週比% | 売買高(株) |
|---|---|---|---|---|---|---|---|
| 26/04/24 | 91.69 | 91.90 | 91.69 | 91.90 | +1.15 | +1.26 | 73 |
| 26/04/17 | 91.58 | 91.58 | 90.28 | 90.76 | -0.52 | -0.57 | 1,517 |
| 26/04/10 | 91.09 | 91.58 | 91.07 | 91.28 | -0.07 | -0.08 | 1,210 |
| 26/04/02 | 90.17 | 91.34 | 90.17 | 91.34 | +1.34 | +1.49 | 92 |
| 26/03/27 | 90.47 | 91.00 | 90.01 | 90.01 | -1.11 | -1.22 | 133 |
| 26/03/20 | 91.02 | 91.22 | 91.02 | 91.12 | -0.22 | -0.24 | 63 |
| 26/03/13 | 90.92 | 91.34 | 90.50 | 91.34 | +0.39 | +0.43 | 418 |
| 26/03/06 | 91.28 | 91.29 | 90.93 | 90.94 | +0.00 | +0.00 | 395 |
| 26/02/27 | 90.84 | 91.53 | 90.84 | 90.94 | +0.10 | +0.11 | 117 |
| 26/02/20 | 90.94 | 90.98 | 90.84 | 90.84 | -0.24 | -0.26 | 349 |
| 26/02/13 | 91.17 | 91.17 | 90.86 | 91.08 | -0.48 | -0.53 | 166 |
| 26/02/06 | 92.14 | 92.16 | 91.56 | 91.56 | -0.25 | -0.27 | 1,385 |
| 26/01/30 | 91.09 | 91.81 | 90.68 | 91.81 | +0.35 | +0.38 | 834 |
| 26/01/23 | 91.60 | 92.95 | 91.25 | 91.47 | -0.27 | -0.29 | 5,857 |
| 26/01/16 | 91.25 | 91.73 | 90.90 | 91.73 | +0.84 | +0.93 | 606 |
| 26/01/09 | 90.77 | 91.70 | 89.43 | 90.89 | +0.23 | +0.26 | 1,203 |
| 26/01/02 | 91.15 | 91.15 | 90.53 | 90.66 | -0.15 | -0.17 | 97 |
| 25/12/26 | 106.81 | 106.81 | 90.58 | 90.81 | -16.30 | -15 | 3,937 |
| 25/12/19 | 106.95 | 108.25 | 106.81 | 107.11 | +0.21 | +0.20 | 9,771 |
| 25/12/12 | 106.89 | 106.92 | 106.84 | 106.91 | +0.29 | +0.27 | 36 |
| 25/12/05 | 107.45 | 107.45 | 103.00 | 106.62 | -0.27 | -0.25 | 470 |
| 25/11/28 | 106.91 | 106.98 | 106.89 | 106.89 | +0.30 | +0.28 | 139 |
| 25/11/21 | 106.82 | 107.53 | 105.94 | 106.58 | +0.37 | +0.35 | 1,658 |
| 25/11/14 | 106.69 | 107.69 | 105.74 | 106.21 | -0.09 | -0.09 | 7,235 |
| 25/11/07 | 107.10 | 107.10 | 106.20 | 106.31 | +0.07 | +0.07 | 202 |
| 25/10/31 | 103.84 | 106.84 | 103.84 | 106.24 | +1.69 | +1.61 | 2,331 |
| 25/10/24 | 104.32 | 107.40 | 103.57 | 104.55 | -1.33 | -1.25 | 7,673 |
| 25/10/17 | 105.32 | 107.83 | 104.62 | 105.88 | -0.36 | -0.34 | 9,891 |
| 25/10/10 | 105.15 | 106.24 | 104.74 | 106.24 | +1.37 | +1.30 | 226 |
| 25/10/03 | 104.86 | 104.88 | 103.98 | 104.88 | +0.13 | +0.12 | 105 |